createdAt,value
2019-03-26T00:00:55.510Z,6.17
2019-03-26T00:03:27.664Z,6.19
2019-03-26T00:05:58.185Z,6.03
2019-03-26T00:08:28.574Z,6.15
2019-03-26T00:10:58.926Z,6.09
2019-03-26T00:13:29.322Z,6.08
2019-03-26T00:15:59.780Z,5.98
2019-03-26T00:18:30.172Z,5.96
2019-03-26T00:21:00.619Z,6.01
2019-03-26T00:23:31.013Z,5.98
2019-03-26T00:26:01.472Z,6.04
2019-03-26T00:28:31.877Z,6.00
2019-03-26T00:31:02.347Z,5.96
2019-03-26T00:33:36.744Z,6.02
2019-03-26T00:36:05.356Z,5.90
2019-03-26T00:38:35.868Z,5.94
2019-03-26T00:41:06.285Z,5.93
2019-03-26T00:43:36.678Z,5.98
2019-03-26T00:46:07.327Z,5.96
2019-03-26T00:48:37.910Z,5.95
2019-03-26T00:51:08.416Z,6.04
2019-03-26T00:53:38.820Z,5.87
2019-03-26T00:56:09.275Z,5.96
2019-03-26T00:58:39.674Z,5.95
2019-03-26T01:01:10.130Z,5.97
2019-03-26T01:03:41.453Z,5.97
2019-03-26T01:06:11.986Z,6.01
2019-03-26T01:08:42.377Z,6.00
2019-03-26T01:11:12.842Z,5.98
2019-03-26T01:13:43.226Z,5.89
2019-03-26T01:16:13.666Z,5.86
2019-03-26T01:18:44.093Z,5.93
2019-03-26T01:21:14.531Z,5.89
2019-03-26T01:23:44.929Z,5.96
2019-03-26T01:26:15.252Z,5.98
2019-03-26T01:28:45.661Z,5.96
2019-03-26T01:31:16.041Z,5.90
2019-03-26T01:33:46.545Z,5.91
2019-03-26T01:36:16.962Z,5.95
2019-03-26T01:38:47.297Z,5.84
2019-03-26T01:41:17.737Z,5.89
2019-03-26T01:43:48.137Z,5.97
2019-03-26T01:46:18.748Z,5.94
2019-03-26T01:48:49.171Z,5.89
2019-03-26T01:51:19.615Z,5.86
2019-03-26T01:53:50.025Z,5.90
2019-03-26T01:56:20.461Z,5.90
2019-03-26T01:58:50.858Z,5.96
2019-03-26T02:01:21.325Z,6.06
2019-03-26T02:03:52.621Z,6.04
2019-03-26T02:06:23.091Z,5.95
2019-03-26T02:08:53.477Z,5.96
2019-03-26T02:11:23.906Z,5.90
2019-03-26T02:13:54.317Z,5.90
2019-03-26T02:16:24.745Z,5.95
2019-03-26T02:18:55.156Z,5.88
2019-03-26T02:21:25.591Z,5.88
2019-03-26T02:23:55.963Z,5.84
2019-03-26T02:26:26.417Z,5.83
2019-03-26T02:28:56.826Z,5.89
2019-03-26T02:31:27.269Z,5.85
2019-03-26T02:33:57.674Z,5.75
2019-03-26T02:36:28.136Z,5.81
2019-03-26T02:38:58.522Z,5.83
2019-03-26T02:41:28.971Z,5.82
2019-03-26T02:43:59.382Z,5.83
2019-03-26T02:46:29.829Z,5.84
2019-03-26T02:49:00.225Z,5.83
2019-03-26T02:51:30.658Z,5.85
2019-03-26T02:54:01.079Z,5.87
2019-03-26T02:56:31.508Z,5.93
2019-03-26T02:59:01.924Z,5.99
2019-03-26T03:01:32.320Z,5.99
2019-03-26T03:04:03.606Z,5.98
2019-03-26T03:06:34.194Z,5.85
2019-03-26T03:09:07.293Z,5.82
2019-03-26T03:11:37.731Z,5.83
2019-03-26T03:14:08.129Z,5.85
2019-03-26T03:16:38.575Z,5.85
2019-03-26T03:19:08.988Z,5.82
2019-03-26T03:21:39.433Z,5.84
2019-03-26T03:24:09.829Z,5.86
2019-03-26T03:26:42.740Z,5.88
2019-03-26T03:29:23.137Z,5.82
2019-03-26T03:31:59.041Z,5.88
2019-03-26T03:34:39.702Z,5.81
2019-03-26T03:37:16.400Z,5.83
2019-03-26T03:39:51.337Z,5.84
2019-03-26T03:42:27.247Z,5.80
2019-03-26T03:45:03.898Z,5.89
2019-03-26T03:47:40.615Z,5.87
2019-03-26T03:50:19.991Z,5.84
2019-03-26T03:52:56.821Z,5.87
2019-03-26T03:55:31.797Z,5.90
2019-03-26T03:58:09.121Z,5.88
2019-03-26T04:00:43.433Z,5.87
2019-03-26T04:03:21.662Z,5.91
2019-03-26T04:06:08.727Z,5.94
2019-03-26T04:08:36.295Z,5.84
2019-03-26T04:11:10.691Z,5.90
2019-03-26T04:13:46.283Z,5.89
2019-03-26T04:16:23.767Z,5.87
2019-03-26T04:18:59.509Z,5.85
2019-03-26T04:21:30.856Z,5.86
2019-03-26T04:24:01.288Z,5.83
2019-03-26T04:26:31.708Z,5.85
2019-03-26T04:29:02.168Z,6.00
2019-03-26T04:31:32.560Z,5.96
2019-03-26T04:34:03.018Z,5.92
2019-03-26T04:36:42.572Z,5.87
2019-03-26T04:39:19.260Z,5.89
2019-03-26T04:41:58.492Z,5.90
2019-03-26T04:44:34.990Z,5.98
2019-03-26T04:47:12.995Z,6.00
2019-03-26T04:49:45.212Z,5.98
2019-03-26T04:52:15.635Z,6.06
2019-03-26T04:54:46.094Z,6.12
2019-03-26T04:57:16.508Z,6.09
2019-03-26T04:59:46.950Z,6.08
2019-03-26T05:02:17.347Z,6.09
2019-03-26T05:04:47.833Z,6.12
2019-03-26T05:07:19.122Z,6.22
2019-03-26T05:09:49.648Z,6.30
2019-03-26T05:12:20.045Z,6.29
2019-03-26T05:14:50.518Z,6.26
2019-03-26T05:17:25.756Z,6.49
2019-03-26T05:19:56.920Z,6.50
2019-03-26T05:22:27.338Z,6.47
2019-03-26T05:24:57.802Z,6.49
2019-03-26T05:27:28.186Z,6.57
2019-03-26T05:29:58.656Z,6.73
2019-03-26T05:32:29.068Z,6.83
2019-03-26T05:34:59.519Z,6.86
2019-03-26T05:37:29.922Z,6.86
2019-03-26T05:40:00.373Z,6.98
2019-03-26T05:42:30.778Z,7.05
2019-03-26T05:45:01.151Z,7.07
2019-03-26T05:47:31.482Z,7.08
2019-03-26T05:50:01.940Z,7.38
2019-03-26T05:52:32.331Z,7.40
2019-03-26T05:55:02.772Z,7.39
2019-03-26T05:57:33.172Z,7.43
2019-03-26T06:00:04.826Z,7.37
2019-03-26T06:02:36.811Z,7.54
2019-03-26T06:05:08.288Z,7.73
2019-03-26T06:07:39.630Z,7.69
2019-03-26T06:10:10.671Z,7.82
2019-03-26T06:12:41.066Z,7.89
2019-03-26T06:15:12.539Z,7.98
2019-03-26T06:17:42.951Z,7.72
2019-03-26T06:20:13.886Z,7.72
2019-03-26T06:22:44.285Z,7.85
2019-03-26T06:25:14.723Z,7.87
2019-03-26T06:27:45.216Z,7.93
2019-03-26T06:30:15.760Z,7.80
2019-03-26T06:32:46.141Z,7.81
2019-03-26T06:35:16.654Z,8.09
2019-03-26T06:37:47.074Z,8.37
2019-03-26T06:40:17.988Z,8.43
2019-03-26T06:42:48.406Z,8.85
2019-03-26T06:45:18.873Z,9.09
2019-03-26T06:47:49.277Z,9.01
2019-03-26T06:50:22.775Z,8.82
2019-03-26T06:52:53.199Z,9.09
2019-03-26T06:55:23.636Z,9.32
2019-03-26T06:57:54.085Z,9.18
2019-03-26T07:00:32.245Z,9.04
2019-03-26T07:03:03.880Z,9.00
2019-03-26T07:05:34.323Z,9.15
2019-03-26T07:08:05.715Z,9.23
2019-03-26T07:10:36.253Z,9.78
2019-03-26T07:13:06.681Z,9.73
2019-03-26T07:15:37.136Z,9.66
2019-03-26T07:18:07.550Z,9.35
2019-03-26T07:20:38.029Z,8.76
2019-03-26T07:23:08.609Z,8.76
2019-03-26T07:25:39.072Z,8.87
2019-03-26T07:28:12.611Z,8.74
2019-03-26T07:31:07.083Z,8.59
2019-03-26T07:33:51.400Z,8.53
2019-03-26T07:36:59.557Z,8.53
2019-03-26T07:49:49.133Z,8.69
2019-03-26T07:52:43.112Z,8.38
2019-03-26T07:55:14.467Z,8.64
2019-03-26T07:57:44.915Z,8.72
2019-03-26T08:00:15.635Z,8.69
2019-03-26T08:02:46.084Z,8.69
2019-03-26T08:05:29.063Z,8.94
2019-03-26T08:07:58.118Z,8.92
2019-03-26T08:10:34.085Z,8.79
2019-03-26T08:13:17.286Z,8.98
2019-03-26T08:15:55.499Z,9.09
2019-03-26T08:18:28.096Z,8.89
2019-03-26T08:21:01.595Z,8.92
2019-03-26T08:23:32.005Z,9.11
2019-03-26T08:26:02.785Z,9.25
2019-03-26T08:28:35.025Z,9.29
2019-03-26T08:31:19.770Z,9.36
2019-03-26T08:33:50.685Z,9.53
2019-03-26T08:36:22.192Z,9.65
2019-03-26T08:38:53.082Z,9.61
2019-03-26T08:41:24.164Z,9.89
2019-03-26T08:43:54.768Z,9.90
2019-03-26T08:46:26.705Z,10.01
2019-03-26T08:48:59.560Z,9.94
2019-03-26T08:51:30.046Z,9.85
2019-03-26T08:54:06.970Z,9.64
2019-03-26T08:56:41.440Z,9.42
2019-03-26T08:59:11.955Z,9.71
2019-03-26T09:01:42.519Z,9.90
2019-03-26T09:04:14.661Z,9.78
2019-03-26T09:06:48.649Z,9.57
2019-03-26T09:09:19.195Z,9.36
2019-03-26T09:11:50.512Z,9.62
2019-03-26T09:14:21.507Z,9.75
2019-03-26T09:16:53.782Z,9.58
2019-03-26T09:19:27.137Z,9.79
2019-03-26T09:22:07.109Z,9.89
2019-03-26T09:24:40.140Z,9.76
2019-03-26T09:30:02.150Z,10.03
2019-03-26T09:32:33.375Z,10.28
2019-03-26T09:35:06.781Z,9.95
2019-03-26T09:37:40.300Z,10.20
2019-03-26T09:40:11.233Z,10.28
2019-03-26T09:42:41.878Z,10.45
2019-03-26T09:45:12.451Z,10.41
2019-03-26T09:47:42.906Z,10.59
2019-03-26T09:50:16.802Z,10.51
2019-03-26T09:52:47.228Z,10.81
2019-03-26T09:55:26.242Z,10.84
2019-03-26T09:57:56.801Z,10.63
2019-03-26T10:00:27.345Z,10.63
2019-03-26T10:03:03.751Z,10.61
2019-03-26T10:05:34.268Z,10.82
2019-03-26T10:08:10.553Z,10.84
2019-03-26T10:10:45.636Z,10.84
2019-03-26T10:13:19.709Z,10.85
2019-03-26T10:15:53.684Z,11.44
2019-03-26T10:18:24.366Z,11.39
2019-03-26T10:20:54.954Z,11.16
2019-03-26T10:23:27.142Z,10.90
2019-03-26T10:25:59.166Z,11.04
2019-03-26T10:28:31.200Z,11.78
2019-03-26T10:31:19.605Z,11.75
2019-03-26T10:33:50.118Z,11.79
2019-03-26T10:36:20.676Z,11.45
2019-03-26T10:39:05.002Z,12.04
2019-03-26T10:41:28.423Z,11.74
2019-03-26T10:44:00.216Z,11.84
2019-03-26T10:46:30.718Z,12.47
2019-03-26T10:49:01.193Z,12.99
2019-03-26T10:51:31.974Z,13.43
2019-03-26T10:54:03.210Z,13.28
2019-03-26T10:56:33.781Z,12.96
2019-03-26T10:59:04.493Z,12.58
2019-03-26T11:01:36.585Z,12.01
2019-03-26T11:04:07.948Z,12.05
2019-03-26T11:06:38.863Z,12.02
2019-03-26T11:09:23.145Z,12.43
2019-03-26T11:11:43.247Z,13.04
2019-03-26T11:14:14.930Z,13.45
2019-03-26T11:16:48.500Z,13.92
2019-03-26T11:19:18.964Z,13.43
2019-03-26T11:21:49.481Z,13.22
2019-03-26T11:24:20.263Z,12.48
2019-03-26T11:26:50.741Z,11.94
2019-03-26T11:29:22.699Z,12.11
2019-03-26T11:31:53.178Z,12.41
2019-03-26T11:34:23.616Z,12.41
2019-03-26T11:36:56.903Z,11.91
2019-03-26T11:39:32.719Z,11.57
2019-03-26T11:41:59.491Z,11.41
2019-03-26T11:44:29.976Z,11.60
2019-03-26T11:47:00.612Z,12.43
2019-03-26T11:49:34.330Z,12.49
2019-03-26T11:52:08.128Z,12.01
2019-03-26T11:54:38.543Z,11.85
2019-03-26T11:57:09.050Z,12.02
2019-03-26T11:59:39.457Z,12.38
2019-03-26T12:02:11.321Z,12.26
2019-03-26T12:04:41.777Z,12.20
2019-03-26T12:07:12.398Z,12.46
2019-03-26T12:09:46.577Z,13.01
2019-03-26T12:12:15.172Z,13.93
2019-03-26T12:14:46.745Z,13.90
2019-03-26T12:17:34.579Z,14.00
2019-03-26T12:20:10.304Z,13.80
2019-03-26T12:22:40.867Z,14.08
2019-03-26T12:25:11.274Z,13.43
2019-03-26T12:27:41.744Z,13.46
2019-03-26T12:30:14.244Z,13.65
2019-03-26T12:32:47.807Z,13.65
2019-03-26T12:35:30.191Z,13.49
2019-03-26T12:38:00.757Z,13.90
2019-03-26T12:40:31.277Z,14.41
2019-03-26T12:43:01.822Z,14.23
2019-03-26T12:45:32.316Z,15.03
2019-03-26T12:48:02.820Z,15.11
2019-03-26T12:50:33.329Z,14.34
2019-03-26T12:53:05.343Z,14.29
2019-03-26T12:55:35.823Z,14.36
2019-03-26T12:58:06.620Z,14.80
2019-03-26T13:00:37.490Z,14.82
2019-03-26T13:03:08.068Z,15.03
2019-03-26T13:05:38.601Z,14.72
2019-03-26T13:08:09.101Z,14.05
2019-03-26T13:10:52.415Z,13.76
2019-03-26T13:13:11.660Z,13.62
2019-03-26T13:15:43.023Z,13.38
2019-03-26T13:18:13.669Z,13.19
2019-03-26T13:20:44.591Z,13.31
2019-03-26T13:23:15.303Z,13.35
2019-03-26T13:25:45.792Z,13.25
2019-03-26T13:28:16.315Z,13.12
2019-03-26T13:30:46.782Z,13.38
2019-03-26T13:33:17.804Z,13.76
2019-03-26T13:35:48.300Z,13.64
2019-03-26T13:38:19.135Z,13.43
2019-03-26T13:40:51.086Z,13.45
2019-03-26T13:43:21.677Z,13.55
2019-03-26T13:45:52.557Z,13.64
2019-03-26T13:48:23.177Z,13.18
2019-03-26T13:50:53.767Z,12.89
2019-03-26T13:53:27.311Z,12.32
2019-03-26T13:55:57.826Z,12.46
2019-03-26T13:58:28.328Z,12.47
2019-03-26T14:00:59.276Z,12.20
2019-03-26T14:03:32.863Z,12.05
2019-03-26T14:06:04.217Z,12.20
2019-03-26T14:08:34.960Z,12.05
2019-03-26T14:11:05.679Z,12.01
2019-03-26T14:13:36.893Z,11.88
2019-03-26T14:16:08.266Z,11.93
2019-03-26T14:18:38.865Z,11.92
2019-03-26T14:21:11.090Z,11.91
2019-03-26T14:23:41.651Z,11.95
2019-03-26T14:26:12.104Z,11.78
2019-03-26T14:28:43.949Z,11.81
2019-03-26T14:31:20.869Z,11.81
2019-03-26T14:33:52.762Z,11.79
2019-03-26T14:36:24.410Z,11.75
2019-03-26T14:38:54.862Z,11.71
2019-03-26T14:41:25.289Z,11.60
2019-03-26T14:43:55.788Z,11.67
2019-03-26T14:46:26.210Z,11.65
2019-03-26T14:48:57.882Z,11.57
2019-03-26T14:51:28.372Z,11.64
2019-03-26T14:53:58.960Z,11.49
2019-03-26T14:56:29.484Z,11.43
2019-03-26T14:59:02.309Z,11.34
2019-03-26T15:01:32.784Z,11.33
2019-03-26T15:04:03.531Z,11.28
2019-03-26T15:06:33.994Z,11.33
2019-03-26T15:09:06.591Z,11.39
2019-03-26T15:11:37.059Z,11.28
2019-03-26T15:14:07.865Z,11.29
2019-03-26T15:16:40.268Z,11.29
2019-03-26T15:19:13.623Z,11.14
2019-03-26T15:21:44.032Z,11.14
2019-03-26T15:24:14.568Z,11.14
2019-03-26T15:26:46.501Z,11.12
2019-03-26T15:29:17.098Z,11.04
2019-03-26T15:31:47.736Z,10.98
2019-03-26T15:34:18.251Z,10.91
2019-03-26T15:36:48.727Z,10.96
2019-03-26T15:39:19.321Z,10.91
2019-03-26T15:41:50.436Z,10.87
2019-03-26T15:44:20.949Z,10.83
2019-03-26T15:46:51.415Z,10.83
2019-03-26T15:49:21.959Z,10.85
2019-03-26T15:51:52.501Z,10.81
2019-03-26T15:54:23.147Z,10.86
2019-03-26T15:56:53.870Z,10.82
2019-03-26T15:59:24.385Z,10.56
2019-03-26T16:01:54.877Z,10.36
2019-03-26T16:04:25.414Z,10.14
2019-03-26T16:06:57.275Z,10.08
2019-03-26T16:09:28.010Z,9.86
2019-03-26T16:11:58.794Z,9.86
2019-03-26T16:14:29.453Z,9.76
2019-03-26T16:17:00.757Z,9.78
2019-03-26T16:19:32.916Z,9.72
2019-03-26T16:22:03.645Z,9.63
2019-03-26T16:24:34.481Z,9.64
2019-03-26T16:27:05.162Z,9.52
2019-03-26T16:29:35.989Z,9.42
2019-03-26T16:32:06.622Z,9.02
2019-03-26T16:34:37.148Z,8.87
2019-03-26T16:37:07.703Z,8.93
2019-03-26T16:39:39.063Z,9.02
2019-03-26T16:42:09.727Z,9.07
2019-03-26T16:44:42.107Z,8.93
2019-03-26T16:47:14.615Z,8.92
2019-03-26T16:49:45.467Z,8.80
2019-03-26T16:52:16.180Z,8.72
2019-03-26T16:54:46.747Z,8.65
2019-03-26T16:57:17.775Z,8.56
2019-03-26T16:59:48.417Z,8.46
2019-03-26T17:02:18.841Z,8.46
2019-03-26T17:04:49.422Z,8.36
2019-03-26T17:07:19.939Z,8.29
2019-03-26T17:09:50.574Z,8.23
2019-03-26T17:12:21.214Z,8.22
2019-03-26T17:14:51.823Z,8.08
2019-03-26T17:17:23.351Z,7.93
2019-03-26T17:19:53.984Z,7.91
2019-03-26T17:22:24.575Z,7.94
2019-03-26T17:24:55.106Z,7.94
2019-03-26T17:27:28.914Z,7.97
2019-03-26T17:29:58.274Z,7.83
2019-03-26T17:32:28.801Z,7.98
2019-03-26T17:35:02.565Z,7.92
2019-03-26T17:37:33.201Z,8.06
2019-03-26T17:40:08.738Z,7.95
2019-03-26T17:42:42.162Z,7.89
2019-03-26T17:45:12.740Z,7.69
2019-03-26T17:47:43.177Z,7.75
2019-03-26T17:50:13.934Z,7.74
2019-03-26T17:52:44.372Z,7.55
2019-03-26T17:55:14.923Z,7.51
2019-03-26T17:57:45.292Z,7.47
2019-03-26T18:00:19.575Z,7.44
2019-03-26T18:02:49.962Z,7.42
2019-03-26T18:05:25.919Z,7.37
2019-03-26T18:07:56.523Z,7.43
2019-03-26T18:10:26.906Z,7.46
2019-03-26T18:12:58.761Z,7.40
2019-03-26T18:15:29.220Z,7.40
2019-03-26T18:18:00.507Z,7.45
2019-03-26T18:20:32.832Z,7.43
2019-03-26T18:23:03.129Z,7.52
2019-03-26T18:25:33.616Z,7.54
2019-03-26T18:28:04.029Z,7.45
2019-03-26T18:30:34.591Z,7.51
2019-03-26T18:33:04.967Z,7.62
2019-03-26T18:35:35.415Z,7.65
2019-03-26T18:38:05.821Z,7.49
2019-03-26T18:40:36.286Z,7.38
2019-03-26T18:43:06.700Z,7.57
2019-03-26T18:45:37.159Z,7.52
2019-03-26T18:48:07.557Z,7.53
2019-03-26T18:50:38.054Z,7.44
2019-03-26T18:53:08.439Z,7.30
2019-03-26T18:55:38.892Z,7.35
2019-03-26T18:58:09.301Z,7.46
2019-03-26T19:00:39.946Z,7.37
2019-03-26T19:03:10.356Z,7.36
2019-03-26T19:05:40.881Z,7.46
2019-03-26T19:08:11.295Z,7.42
2019-03-26T19:10:43.236Z,7.21
2019-03-26T19:13:19.711Z,7.19
2019-03-26T19:15:45.799Z,7.33
2019-03-26T19:18:16.527Z,7.02
2019-03-26T19:21:01.035Z,7.08
2019-03-26T19:23:19.686Z,7.06
2019-03-26T19:25:50.146Z,7.15
2019-03-26T19:28:20.573Z,7.08
2019-03-26T19:30:51.045Z,7.13
2019-03-26T19:33:21.436Z,7.08
2019-03-26T19:35:51.944Z,7.19
2019-03-26T19:38:22.317Z,7.16
2019-03-26T19:40:52.767Z,7.23
2019-03-26T19:43:23.110Z,7.16
2019-03-26T19:45:53.535Z,7.17
2019-03-26T19:48:23.965Z,7.18
2019-03-26T19:50:54.443Z,7.14
2019-03-26T19:53:24.867Z,7.13
2019-03-26T19:55:55.340Z,7.18
2019-03-26T19:58:25.721Z,7.23
2019-03-26T20:00:56.099Z,7.14
2019-03-26T20:03:26.513Z,7.18
2019-03-26T20:05:56.990Z,7.08
2019-03-26T20:08:27.349Z,7.12
2019-03-26T20:10:57.814Z,7.18
2019-03-26T20:13:28.244Z,7.15
2019-03-26T20:15:58.713Z,7.11
2019-03-26T20:18:29.988Z,6.99
2019-03-26T20:21:00.512Z,7.10
2019-03-26T20:23:30.846Z,7.07
2019-03-26T20:26:01.274Z,6.93
2019-03-26T20:28:31.611Z,6.87
2019-03-26T20:31:02.071Z,6.88
2019-03-26T20:33:32.470Z,6.76
2019-03-26T20:36:03.739Z,6.85
2019-03-26T20:38:34.156Z,6.79
2019-03-26T20:41:04.607Z,6.73
2019-03-26T20:43:37.580Z,6.65
2019-03-26T20:46:07.180Z,6.59
2019-03-26T20:48:37.607Z,6.64
2019-03-26T20:51:08.055Z,6.49
2019-03-26T20:53:38.458Z,6.61
2019-03-26T20:56:08.908Z,6.61
2019-03-26T20:58:39.328Z,6.65
2019-03-26T21:01:09.792Z,6.49
2019-03-26T21:03:40.185Z,6.55
2019-03-26T21:06:10.670Z,6.50
2019-03-26T21:08:41.061Z,6.41
2019-03-26T21:11:11.566Z,6.38
2019-03-26T21:13:50.698Z,6.29
2019-03-26T21:16:14.162Z,6.28
2019-03-26T21:18:45.483Z,6.26
2019-03-26T21:21:16.012Z,6.20
2019-03-26T21:23:46.421Z,6.19
2019-03-26T21:26:16.910Z,6.21
2019-03-26T21:28:47.305Z,6.25
2019-03-26T21:31:17.767Z,6.29
2019-03-26T21:33:48.143Z,6.24
2019-03-26T21:36:18.624Z,6.28
2019-03-26T21:38:49.036Z,6.20
2019-03-26T21:41:19.472Z,6.24
2019-03-26T21:44:03.322Z,6.20
2019-03-26T21:46:22.013Z,6.23
2019-03-26T21:48:52.410Z,6.18
2019-03-26T21:51:22.817Z,6.15
2019-03-26T21:53:53.238Z,6.20
2019-03-26T21:56:23.692Z,6.12
2019-03-26T21:58:54.075Z,6.03
2019-03-26T22:01:24.524Z,6.00
2019-03-26T22:03:54.957Z,5.99
2019-03-26T22:06:25.399Z,5.94
2019-03-26T22:08:55.791Z,5.88
2019-03-26T22:11:26.264Z,5.86
2019-03-26T22:13:56.653Z,5.83
2019-03-26T22:16:27.030Z,5.81
2019-03-26T22:18:58.299Z,5.77
2019-03-26T22:21:28.746Z,5.69
2019-03-26T22:23:59.145Z,5.79
2019-03-26T22:26:29.595Z,5.73
2019-03-26T22:28:59.986Z,5.66
2019-03-26T22:31:30.433Z,5.63
2019-03-26T22:34:00.820Z,5.53
2019-03-26T22:36:31.263Z,5.54
2019-03-26T22:39:01.655Z,5.48
2019-03-26T22:41:32.033Z,5.41
2019-03-26T22:44:02.449Z,5.31
2019-03-26T22:46:32.814Z,5.32
2019-03-26T22:49:03.214Z,5.25
2019-03-26T22:51:33.678Z,5.32
2019-03-26T22:54:04.081Z,5.07
2019-03-26T22:56:34.538Z,5.25
2019-03-26T22:59:04.934Z,5.14
2019-03-26T23:01:35.473Z,5.06
2019-03-26T23:04:05.909Z,5.07
2019-03-26T23:06:36.358Z,5.05
2019-03-26T23:09:07.071Z,5.02
2019-03-26T23:11:37.584Z,4.88
2019-03-26T23:14:07.981Z,4.96
2019-03-26T23:16:38.452Z,4.94
2019-03-26T23:19:09.808Z,4.92
2019-03-26T23:21:40.384Z,4.95
2019-03-26T23:24:10.756Z,4.82
2019-03-26T23:26:41.237Z,4.69
2019-03-26T23:29:11.672Z,4.64
2019-03-26T23:31:42.118Z,4.65
2019-03-26T23:34:12.547Z,4.65
2019-03-26T23:36:42.997Z,4.62
2019-03-26T23:39:13.400Z,4.55
2019-03-26T23:41:43.857Z,4.52
2019-03-26T23:44:25.228Z,4.63
2019-03-26T23:46:46.425Z,4.74
2019-03-26T23:49:16.821Z,4.57
2019-03-26T23:51:47.271Z,4.43
2019-03-26T23:54:17.706Z,4.42
2019-03-26T23:56:48.139Z,4.35
2019-03-26T23:59:18.522Z,4.34
